sensor_id;sensor_type;location;lat;lon;timestamp;temperature;humidity
16515;DHT22;8370;52.556;7.970;2023-07-28T00:02:21;17.90;99.90
16515;DHT22;8370;52.556;7.970;2023-07-28T00:04:46;17.90;99.90
16515;DHT22;8370;52.556;7.970;2023-07-28T00:07:12;17.90;99.90
16515;DHT22;8370;52.556;7.970;2023-07-28T00:09:37;17.90;99.90
16515;DHT22;8370;52.556;7.970;2023-07-28T00:12:03;17.90;99.90
16515;DHT22;8370;52.556;7.970;2023-07-28T00:14:28;17.90;99.90
16515;DHT22;8370;52.556;7.970;2023-07-28T00:16:54;17.90;99.90
16515;DHT22;8370;52.556;7.970;2023-07-28T00:19:20;17.80;99.90
16515;DHT22;8370;52.556;7.970;2023-07-28T00:21:49;17.90;99.90
16515;DHT22;8370;52.556;7.970;2023-07-28T00:24:15;17.90;99.90
16515;DHT22;8370;52.556;7.970;2023-07-28T00:26:41;17.90;99.90
16515;DHT22;8370;52.556;7.970;2023-07-28T00:29:06;18.00;99.90
16515;DHT22;8370;52.556;7.970;2023-07-28T00:31:32;17.90;99.90
16515;DHT22;8370;52.556;7.970;2023-07-28T00:33:58;17.90;99.90
16515;DHT22;8370;52.556;7.970;2023-07-28T00:36:23;18.00;99.90
16515;DHT22;8370;52.556;7.970;2023-07-28T00:38:49;17.90;99.90
16515;DHT22;8370;52.556;7.970;2023-07-28T00:41:14;17.90;99.90
16515;DHT22;8370;52.556;7.970;2023-07-28T00:43:40;17.90;99.90
16515;DHT22;8370;52.556;7.970;2023-07-28T00:46:05;17.90;99.90
16515;DHT22;8370;52.556;7.970;2023-07-28T00:48:31;17.80;99.90
16515;DHT22;8370;52.556;7.970;2023-07-28T00:50:56;17.90;99.90
16515;DHT22;8370;52.556;7.970;2023-07-28T00:53:23;17.80;99.90
16515;DHT22;8370;52.556;7.970;2023-07-28T00:55:48;17.90;99.90
16515;DHT22;8370;52.556;7.970;2023-07-28T00:58:14;18.00;99.90
16515;DHT22;8370;52.556;7.970;2023-07-28T01:00:39;17.90;99.90
16515;DHT22;8370;52.556;7.970;2023-07-28T01:03:05;17.90;99.90
16515;DHT22;8370;52.556;7.970;2023-07-28T01:05:32;18.00;99.90
16515;DHT22;8370;52.556;7.970;2023-07-28T01:08:01;17.90;99.90
16515;DHT22;8370;52.556;7.970;2023-07-28T01:10:30;18.00;99.90
16515;DHT22;8370;52.556;7.970;2023-07-28T01:12:55;17.90;99.90
16515;DHT22;8370;52.556;7.970;2023-07-28T01:15:21;17.90;99.90
16515;DHT22;8370;52.556;7.970;2023-07-28T01:17:46;17.90;99.90
16515;DHT22;8370;52.556;7.970;2023-07-28T01:20:12;17.90;99.90
16515;DHT22;8370;52.556;7.970;2023-07-28T01:22:48;17.90;99.90
16515;DHT22;8370;52.556;7.970;2023-07-28T01:25:28;17.90;99.90
16515;DHT22;8370;52.556;7.970;2023-07-28T01:27:57;17.90;99.90
16515;DHT22;8370;52.556;7.970;2023-07-28T01:30:23;17.90;99.90
16515;DHT22;8370;52.556;7.970;2023-07-28T01:32:53;17.90;99.90
16515;DHT22;8370;52.556;7.970;2023-07-28T01:35:19;17.90;99.90
16515;DHT22;8370;52.556;7.970;2023-07-28T01:37:44;17.90;99.90
16515;DHT22;8370;52.556;7.970;2023-07-28T01:40:10;17.90;99.90
16515;DHT22;8370;52.556;7.970;2023-07-28T01:42:36;17.90;99.90
16515;DHT22;8370;52.556;7.970;2023-07-28T01:45:01;17.80;99.90
16515;DHT22;8370;52.556;7.970;2023-07-28T01:47:27;17.80;99.90
16515;DHT22;8370;52.556;7.970;2023-07-28T01:49:52;17.90;99.90
16515;DHT22;8370;52.556;7.970;2023-07-28T01:52:17;17.80;99.90
16515;DHT22;8370;52.556;7.970;2023-07-28T01:54:43;17.90;99.90
16515;DHT22;8370;52.556;7.970;2023-07-28T01:57:08;18.00;99.90
16515;DHT22;8370;52.556;7.970;2023-07-28T01:59:34;17.90;99.90
16515;DHT22;8370;52.556;7.970;2023-07-28T02:01:59;17.90;99.90
16515;DHT22;8370;52.556;7.970;2023-07-28T02:04:25;17.90;99.90
16515;DHT22;8370;52.556;7.970;2023-07-28T02:06:50;17.90;99.90
16515;DHT22;8370;52.556;7.970;2023-07-28T02:09:16;17.90;99.90
16515;DHT22;8370;52.556;7.970;2023-07-28T02:11:42;17.90;99.90
16515;DHT22;8370;52.556;7.970;2023-07-28T02:14:07;17.90;99.90
16515;DHT22;8370;52.556;7.970;2023-07-28T02:16:33;17.90;99.90
16515;DHT22;8370;52.556;7.970;2023-07-28T02:18:58;18.00;99.90
16515;DHT22;8370;52.556;7.970;2023-07-28T02:21:24;17.90;99.90
16515;DHT22;8370;52.556;7.970;2023-07-28T02:23:49;17.90;99.90
16515;DHT22;8370;52.556;7.970;2023-07-28T02:26:15;17.90;99.90
16515;DHT22;8370;52.556;7.970;2023-07-28T02:28:40;17.80;99.90
16515;DHT22;8370;52.556;7.970;2023-07-28T02:31:05;17.80;99.90
16515;DHT22;8370;52.556;7.970;2023-07-28T02:33:31;17.80;99.90
16515;DHT22;8370;52.556;7.970;2023-07-28T02:36:00;17.70;99.90
16515;DHT22;8370;52.556;7.970;2023-07-28T02:38:26;17.80;99.90
16515;DHT22;8370;52.556;7.970;2023-07-28T02:40:51;17.80;99.90
16515;DHT22;8370;52.556;7.970;2023-07-28T02:43:17;17.90;99.90
16515;DHT22;8370;52.556;7.970;2023-07-28T02:45:42;17.90;99.90
16515;DHT22;8370;52.556;7.970;2023-07-28T02:48:07;17.90;99.90
16515;DHT22;8370;52.556;7.970;2023-07-28T02:50:33;17.90;99.90
16515;DHT22;8370;52.556;7.970;2023-07-28T02:52:59;17.90;99.90
16515;DHT22;8370;52.556;7.970;2023-07-28T02:55:24;17.80;99.90
16515;DHT22;8370;52.556;7.970;2023-07-28T02:57:49;17.90;99.90
16515;DHT22;8370;52.556;7.970;2023-07-28T03:00:15;17.90;99.90
16515;DHT22;8370;52.556;7.970;2023-07-28T03:02:40;17.90;99.90
16515;DHT22;8370;52.556;7.970;2023-07-28T03:05:06;17.90;99.90
16515;DHT22;8370;52.556;7.970;2023-07-28T03:07:31;17.90;99.90
16515;DHT22;8370;52.556;7.970;2023-07-28T03:09:57;17.80;99.90
16515;DHT22;8370;52.556;7.970;2023-07-28T03:12:23;17.80;99.90
16515;DHT22;8370;52.556;7.970;2023-07-28T03:14:48;17.80;99.90
16515;DHT22;8370;52.556;7.970;2023-07-28T03:17:14;17.70;99.90
16515;DHT22;8370;52.556;7.970;2023-07-28T03:19:39;17.80;99.90
16515;DHT22;8370;52.556;7.970;2023-07-28T03:22:05;17.70;99.90
16515;DHT22;8370;52.556;7.970;2023-07-28T03:24:30;17.70;99.90
16515;DHT22;8370;52.556;7.970;2023-07-28T03:26:56;17.80;99.90
16515;DHT22;8370;52.556;7.970;2023-07-28T03:29:21;17.70;99.90
16515;DHT22;8370;52.556;7.970;2023-07-28T03:31:47;17.80;99.90
16515;DHT22;8370;52.556;7.970;2023-07-28T03:34:12;17.70;99.90
16515;DHT22;8370;52.556;7.970;2023-07-28T03:36:38;17.80;99.90
16515;DHT22;8370;52.556;7.970;2023-07-28T03:39:03;17.80;99.90
16515;DHT22;8370;52.556;7.970;2023-07-28T03:41:29;17.80;99.90
16515;DHT22;8370;52.556;7.970;2023-07-28T03:43:54;17.80;99.90
16515;DHT22;8370;52.556;7.970;2023-07-28T03:46:20;17.80;99.90
16515;DHT22;8370;52.556;7.970;2023-07-28T03:48:45;17.80;99.90
16515;DHT22;8370;52.556;7.970;2023-07-28T03:51:10;17.80;99.90
16515;DHT22;8370;52.556;7.970;2023-07-28T03:53:36;17.80;99.90
16515;DHT22;8370;52.556;7.970;2023-07-28T03:56:02;17.90;99.90
16515;DHT22;8370;52.556;7.970;2023-07-28T03:58:28;17.80;99.90
16515;DHT22;8370;52.556;7.970;2023-07-28T04:00:53;17.80;99.90
16515;DHT22;8370;52.556;7.970;2023-07-28T04:03:19;17.90;99.90
16515;DHT22;8370;52.556;7.970;2023-07-28T04:05:44;17.90;99.90
16515;DHT22;8370;52.556;7.970;2023-07-28T04:08:10;17.90;99.90
16515;DHT22;8370;52.556;7.970;2023-07-28T04:10:35;17.90;99.90
16515;DHT22;8370;52.556;7.970;2023-07-28T04:13:01;17.90;99.90
16515;DHT22;8370;52.556;7.970;2023-07-28T04:15:26;17.90;99.90
16515;DHT22;8370;52.556;7.970;2023-07-28T04:17:52;17.90;99.90
16515;DHT22;8370;52.556;7.970;2023-07-28T04:20:17;17.90;99.90
16515;DHT22;8370;52.556;7.970;2023-07-28T04:22:42;18.00;99.90
16515;DHT22;8370;52.556;7.970;2023-07-28T04:25:08;17.90;99.90
16515;DHT22;8370;52.556;7.970;2023-07-28T04:27:34;17.90;99.90
16515;DHT22;8370;52.556;7.970;2023-07-28T04:29:59;18.00;99.90
16515;DHT22;8370;52.556;7.970;2023-07-28T04:32:24;17.90;99.90
16515;DHT22;8370;52.556;7.970;2023-07-28T04:34:51;17.90;99.90
16515;DHT22;8370;52.556;7.970;2023-07-28T04:37:17;18.00;99.90
16515;DHT22;8370;52.556;7.970;2023-07-28T04:39:42;18.00;99.90
16515;DHT22;8370;52.556;7.970;2023-07-28T04:42:08;18.00;99.90
16515;DHT22;8370;52.556;7.970;2023-07-28T04:44:34;18.00;99.90
16515;DHT22;8370;52.556;7.970;2023-07-28T04:46:59;18.10;99.90
16515;DHT22;8370;52.556;7.970;2023-07-28T04:49:25;18.10;99.90
16515;DHT22;8370;52.556;7.970;2023-07-28T04:51:50;18.10;99.90
16515;DHT22;8370;52.556;7.970;2023-07-28T04:54:16;18.00;99.90
16515;DHT22;8370;52.556;7.970;2023-07-28T04:56:41;18.00;99.90
16515;DHT22;8370;52.556;7.970;2023-07-28T04:59:06;18.10;99.90
16515;DHT22;8370;52.556;7.970;2023-07-28T05:01:33;18.10;99.90
16515;DHT22;8370;52.556;7.970;2023-07-28T05:03:58;18.10;99.90
16515;DHT22;8370;52.556;7.970;2023-07-28T05:06:23;18.10;99.90
16515;DHT22;8370;52.556;7.970;2023-07-28T05:08:49;18.10;99.90
16515;DHT22;8370;52.556;7.970;2023-07-28T05:11:14;18.10;99.90
16515;DHT22;8370;52.556;7.970;2023-07-28T05:13:40;18.10;99.90
16515;DHT22;8370;52.556;7.970;2023-07-28T05:16:05;18.10;99.90
16515;DHT22;8370;52.556;7.970;2023-07-28T05:18:31;18.10;99.90
16515;DHT22;8370;52.556;7.970;2023-07-28T05:20:56;18.10;99.90
16515;DHT22;8370;52.556;7.970;2023-07-28T05:23:22;18.10;99.90
16515;DHT22;8370;52.556;7.970;2023-07-28T05:25:47;18.10;99.90
16515;DHT22;8370;52.556;7.970;2023-07-28T05:28:13;18.10;99.90
16515;DHT22;8370;52.556;7.970;2023-07-28T05:30:38;18.20;99.90
16515;DHT22;8370;52.556;7.970;2023-07-28T05:33:03;18.20;99.90
16515;DHT22;8370;52.556;7.970;2023-07-28T05:35:29;18.30;99.90
16515;DHT22;8370;52.556;7.970;2023-07-28T05:37:55;18.20;99.90
16515;DHT22;8370;52.556;7.970;2023-07-28T05:40:20;18.20;99.90
16515;DHT22;8370;52.556;7.970;2023-07-28T05:42:46;18.30;99.90
16515;DHT22;8370;52.556;7.970;2023-07-28T05:45:11;18.30;99.90
16515;DHT22;8370;52.556;7.970;2023-07-28T05:47:37;18.20;99.90
16515;DHT22;8370;52.556;7.970;2023-07-28T05:50:02;18.20;99.90
16515;DHT22;8370;52.556;7.970;2023-07-28T05:52:28;18.20;99.90
16515;DHT22;8370;52.556;7.970;2023-07-28T05:54:53;18.20;99.90
16515;DHT22;8370;52.556;7.970;2023-07-28T05:57:19;18.20;99.90
16515;DHT22;8370;52.556;7.970;2023-07-28T05:59:45;18.20;99.90
16515;DHT22;8370;52.556;7.970;2023-07-28T06:02:10;18.30;99.90
16515;DHT22;8370;52.556;7.970;2023-07-28T06:04:36;18.30;99.90
16515;DHT22;8370;52.556;7.970;2023-07-28T06:07:01;18.30;99.90
16515;DHT22;8370;52.556;7.970;2023-07-28T06:09:27;18.40;99.90
16515;DHT22;8370;52.556;7.970;2023-07-28T06:11:53;18.40;99.90
16515;DHT22;8370;52.556;7.970;2023-07-28T06:14:18;18.40;99.90
16515;DHT22;8370;52.556;7.970;2023-07-28T06:16:44;18.40;99.90
16515;DHT22;8370;52.556;7.970;2023-07-28T06:19:09;18.40;99.90
16515;DHT22;8370;52.556;7.970;2023-07-28T06:21:35;18.50;99.90
16515;DHT22;8370;52.556;7.970;2023-07-28T06:24:00;18.40;99.90
16515;DHT22;8370;52.556;7.970;2023-07-28T06:26:26;18.40;99.90
16515;DHT22;8370;52.556;7.970;2023-07-28T06:28:51;18.40;99.90
16515;DHT22;8370;52.556;7.970;2023-07-28T06:31:17;18.50;99.90
16515;DHT22;8370;52.556;7.970;2023-07-28T06:33:42;18.60;99.90
16515;DHT22;8370;52.556;7.970;2023-07-28T06:36:07;18.60;99.90
16515;DHT22;8370;52.556;7.970;2023-07-28T06:38:33;18.70;99.90
16515;DHT22;8370;52.556;7.970;2023-07-28T06:40:58;18.80;99.90
16515;DHT22;8370;52.556;7.970;2023-07-28T06:43:25;18.70;99.90
16515;DHT22;8370;52.556;7.970;2023-07-28T06:45:52;18.80;99.90
16515;DHT22;8370;52.556;7.970;2023-07-28T06:48:18;18.90;99.90
16515;DHT22;8370;52.556;7.970;2023-07-28T06:50:43;18.90;99.90
16515;DHT22;8370;52.556;7.970;2023-07-28T06:53:09;18.90;99.90
16515;DHT22;8370;52.556;7.970;2023-07-28T06:55:34;18.90;99.90
16515;DHT22;8370;52.556;7.970;2023-07-28T06:58:00;19.00;99.90
16515;DHT22;8370;52.556;7.970;2023-07-28T07:00:26;19.00;99.90
16515;DHT22;8370;52.556;7.970;2023-07-28T07:02:51;19.00;99.90
16515;DHT22;8370;52.556;7.970;2023-07-28T07:05:17;18.90;99.90
16515;DHT22;8370;52.556;7.970;2023-07-28T07:07:42;18.90;99.90
16515;DHT22;8370;52.556;7.970;2023-07-28T07:10:08;18.90;99.90
16515;DHT22;8370;52.556;7.970;2023-07-28T07:12:33;19.00;99.90
16515;DHT22;8370;52.556;7.970;2023-07-28T07:14:59;19.00;99.90
16515;DHT22;8370;52.556;7.970;2023-07-28T07:17:24;19.10;99.90
16515;DHT22;8370;52.556;7.970;2023-07-28T07:19:50;19.20;99.90
16515;DHT22;8370;52.556;7.970;2023-07-28T07:22:15;19.20;99.90
16515;DHT22;8370;52.556;7.970;2023-07-28T07:24:41;19.20;99.90
16515;DHT22;8370;52.556;7.970;2023-07-28T07:27:06;19.30;99.90
16515;DHT22;8370;52.556;7.970;2023-07-28T07:29:32;19.40;99.90
16515;DHT22;8370;52.556;7.970;2023-07-28T07:31:57;19.50;99.90
16515;DHT22;8370;52.556;7.970;2023-07-28T07:34:23;19.60;99.90
16515;DHT22;8370;52.556;7.970;2023-07-28T07:36:49;19.70;99.90
16515;DHT22;8370;52.556;7.970;2023-07-28T07:39:14;19.80;99.90
16515;DHT22;8370;52.556;7.970;2023-07-28T07:41:40;20.00;99.90
16515;DHT22;8370;52.556;7.970;2023-07-28T07:44:05;20.10;99.90
16515;DHT22;8370;52.556;7.970;2023-07-28T07:46:31;20.10;99.90
16515;DHT22;8370;52.556;7.970;2023-07-28T07:48:56;20.10;99.90
16515;DHT22;8370;52.556;7.970;2023-07-28T07:51:22;20.20;99.90
16515;DHT22;8370;52.556;7.970;2023-07-28T07:53:48;20.20;99.90
16515;DHT22;8370;52.556;7.970;2023-07-28T07:56:14;20.20;99.90
16515;DHT22;8370;52.556;7.970;2023-07-28T07:58:39;20.30;99.90
16515;DHT22;8370;52.556;7.970;2023-07-28T08:01:05;20.30;99.90
16515;DHT22;8370;52.556;7.970;2023-07-28T08:03:30;20.40;99.90
16515;DHT22;8370;52.556;7.970;2023-07-28T08:05:57;20.50;99.90
16515;DHT22;8370;52.556;7.970;2023-07-28T08:08:23;20.60;99.90
16515;DHT22;8370;52.556;7.970;2023-07-28T08:10:51;20.60;99.90
16515;DHT22;8370;52.556;7.970;2023-07-28T08:13:17;20.60;99.90
16515;DHT22;8370;52.556;7.970;2023-07-28T08:15:43;20.70;99.90
16515;DHT22;8370;52.556;7.970;2023-07-28T08:18:08;20.70;99.90
16515;DHT22;8370;52.556;7.970;2023-07-28T08:20:34;20.70;99.90
16515;DHT22;8370;52.556;7.970;2023-07-28T08:22:59;20.60;99.90
16515;DHT22;8370;52.556;7.970;2023-07-28T08:25:25;20.50;99.90
16515;DHT22;8370;52.556;7.970;2023-07-28T08:27:50;20.50;99.90
16515;DHT22;8370;52.556;7.970;2023-07-28T08:30:16;20.50;99.90
16515;DHT22;8370;52.556;7.970;2023-07-28T08:32:42;20.60;99.90
16515;DHT22;8370;52.556;7.970;2023-07-28T08:35:08;20.70;99.90
16515;DHT22;8370;52.556;7.970;2023-07-28T08:37:33;20.70;99.90
16515;DHT22;8370;52.556;7.970;2023-07-28T08:39:59;20.60;99.90
16515;DHT22;8370;52.556;7.970;2023-07-28T08:42:24;20.70;99.90
16515;DHT22;8370;52.556;7.970;2023-07-28T08:44:50;20.80;99.90
16515;DHT22;8370;52.556;7.970;2023-07-28T08:47:17;20.90;99.90
16515;DHT22;8370;52.556;7.970;2023-07-28T08:49:45;20.90;99.90
16515;DHT22;8370;52.556;7.970;2023-07-28T08:52:12;20.90;99.90
16515;DHT22;8370;52.556;7.970;2023-07-28T08:54:39;20.80;99.90
16515;DHT22;8370;52.556;7.970;2023-07-28T08:57:05;20.80;99.90
16515;DHT22;8370;52.556;7.970;2023-07-28T08:59:30;20.80;99.90
16515;DHT22;8370;52.556;7.970;2023-07-28T09:01:57;20.90;99.90
16515;DHT22;8370;52.556;7.970;2023-07-28T09:04:25;21.00;99.90
16515;DHT22;8370;52.556;7.970;2023-07-28T09:06:51;21.00;99.90
16515;DHT22;8370;52.556;7.970;2023-07-28T09:09:18;21.00;99.90
16515;DHT22;8370;52.556;7.970;2023-07-28T09:11:48;21.00;99.90
16515;DHT22;8370;52.556;7.970;2023-07-28T09:14:14;21.10;99.90
16515;DHT22;8370;52.556;7.970;2023-07-28T09:16:41;21.10;99.90
16515;DHT22;8370;52.556;7.970;2023-07-28T09:19:07;21.10;99.90
16515;DHT22;8370;52.556;7.970;2023-07-28T09:21:33;21.10;99.90
16515;DHT22;8370;52.556;7.970;2023-07-28T09:24:05;21.10;99.90
16515;DHT22;8370;52.556;7.970;2023-07-28T09:29:13;21.30;99.90
16515;DHT22;8370;52.556;7.970;2023-07-28T09:31:39;21.30;99.90
16515;DHT22;8370;52.556;7.970;2023-07-28T09:34:08;21.40;99.90
16515;DHT22;8370;52.556;7.970;2023-07-28T09:36:34;21.40;99.90
16515;DHT22;8370;52.556;7.970;2023-07-28T09:38:59;21.50;99.90
16515;DHT22;8370;52.556;7.970;2023-07-28T09:41:26;21.60;99.90
16515;DHT22;8370;52.556;7.970;2023-07-28T09:43:54;21.70;99.90
16515;DHT22;8370;52.556;7.970;2023-07-28T09:46:19;21.80;99.90
16515;DHT22;8370;52.556;7.970;2023-07-28T09:48:45;21.90;99.90
16515;DHT22;8370;52.556;7.970;2023-07-28T09:51:15;21.90;99.90
16515;DHT22;8370;52.556;7.970;2023-07-28T09:53:44;22.10;99.90
16515;DHT22;8370;52.556;7.970;2023-07-28T09:56:12;22.10;99.90
16515;DHT22;8370;52.556;7.970;2023-07-28T09:58:40;22.20;99.90
16515;DHT22;8370;52.556;7.970;2023-07-28T10:01:06;22.20;99.90
16515;DHT22;8370;52.556;7.970;2023-07-28T10:03:32;22.20;99.90
16515;DHT22;8370;52.556;7.970;2023-07-28T10:05:58;22.20;99.90
16515;DHT22;8370;52.556;7.970;2023-07-28T10:08:24;22.20;99.90
16515;DHT22;8370;52.556;7.970;2023-07-28T10:10:50;22.20;99.90
16515;DHT22;8370;52.556;7.970;2023-07-28T10:13:21;22.00;99.90
16515;DHT22;8370;52.556;7.970;2023-07-28T10:15:46;22.00;99.90
16515;DHT22;8370;52.556;7.970;2023-07-28T10:18:13;22.00;99.90
16515;DHT22;8370;52.556;7.970;2023-07-28T10:20:39;22.10;99.90
16515;DHT22;8370;52.556;7.970;2023-07-28T10:25:37;22.20;99.90
16515;DHT22;8370;52.556;7.970;2023-07-28T10:28:04;22.40;99.90
16515;DHT22;8370;52.556;7.970;2023-07-28T10:30:34;22.40;99.90
16515;DHT22;8370;52.556;7.970;2023-07-28T10:33:01;22.40;99.90
16515;DHT22;8370;52.556;7.970;2023-07-28T10:35:28;22.50;99.90
16515;DHT22;8370;52.556;7.970;2023-07-28T10:37:56;22.60;99.90
16515;DHT22;8370;52.556;7.970;2023-07-28T10:40:31;22.60;99.90
16515;DHT22;8370;52.556;7.970;2023-07-28T10:43:00;22.50;99.90
16515;DHT22;8370;52.556;7.970;2023-07-28T10:45:27;22.50;99.90
16515;DHT22;8370;52.556;7.970;2023-07-28T10:47:54;22.40;99.90
16515;DHT22;8370;52.556;7.970;2023-07-28T10:50:26;22.30;99.90
16515;DHT22;8370;52.556;7.970;2023-07-28T10:52:52;22.40;99.90
16515;DHT22;8370;52.556;7.970;2023-07-28T10:55:18;22.60;99.90
16515;DHT22;8370;52.556;7.970;2023-07-28T10:57:45;22.70;99.90
16515;DHT22;8370;52.556;7.970;2023-07-28T11:00:12;22.60;99.90
16515;DHT22;8370;52.556;7.970;2023-07-28T11:02:38;22.80;99.90
16515;DHT22;8370;52.556;7.970;2023-07-28T11:05:09;23.00;99.90
16515;DHT22;8370;52.556;7.970;2023-07-28T11:07:35;23.20;99.90
16515;DHT22;8370;52.556;7.970;2023-07-28T11:10:01;23.30;99.90
16515;DHT22;8370;52.556;7.970;2023-07-28T11:12:27;23.40;99.90
16515;DHT22;8370;52.556;7.970;2023-07-28T11:14:52;23.50;99.90
16515;DHT22;8370;52.556;7.970;2023-07-28T11:17:18;23.50;99.90
16515;DHT22;8370;52.556;7.970;2023-07-28T11:19:43;23.40;99.90
16515;DHT22;8370;52.556;7.970;2023-07-28T11:22:09;23.40;99.90
16515;DHT22;8370;52.556;7.970;2023-07-28T11:24:34;23.70;99.90
16515;DHT22;8370;52.556;7.970;2023-07-28T11:26:59;23.70;99.90
16515;DHT22;8370;52.556;7.970;2023-07-28T11:29:26;23.70;99.90
16515;DHT22;8370;52.556;7.970;2023-07-28T11:31:52;23.80;99.90
16515;DHT22;8370;52.556;7.970;2023-07-28T11:34:17;23.90;99.90
16515;DHT22;8370;52.556;7.970;2023-07-28T11:36:43;24.00;99.90
16515;DHT22;8370;52.556;7.970;2023-07-28T11:39:09;24.00;99.90
16515;DHT22;8370;52.556;7.970;2023-07-28T11:41:36;24.10;99.90
16515;DHT22;8370;52.556;7.970;2023-07-28T11:44:01;24.40;99.90
16515;DHT22;8370;52.556;7.970;2023-07-28T11:46:40;24.50;99.90
16515;DHT22;8370;52.556;7.970;2023-07-28T11:49:10;24.70;99.90
16515;DHT22;8370;52.556;7.970;2023-07-28T11:51:39;24.60;99.90
16515;DHT22;8370;52.556;7.970;2023-07-28T11:54:05;24.80;99.90
16515;DHT22;8370;52.556;7.970;2023-07-28T11:56:31;24.70;99.90
16515;DHT22;8370;52.556;7.970;2023-07-28T11:58:56;24.60;99.90
16515;DHT22;8370;52.556;7.970;2023-07-28T12:01:23;24.40;99.90
16515;DHT22;8370;52.556;7.970;2023-07-28T12:03:48;24.40;99.90
16515;DHT22;8370;52.556;7.970;2023-07-28T12:06:14;24.60;99.90
16515;DHT22;8370;52.556;7.970;2023-07-28T12:08:39;24.60;99.90
16515;DHT22;8370;52.556;7.970;2023-07-28T12:11:05;24.80;99.90
16515;DHT22;8370;52.556;7.970;2023-07-28T12:13:31;25.10;99.90
16515;DHT22;8370;52.556;7.970;2023-07-28T12:15:57;25.80;99.90
16515;DHT22;8370;52.556;7.970;2023-07-28T12:18:22;26.50;99.90
16515;DHT22;8370;52.556;7.970;2023-07-28T12:20:49;27.50;99.90
16515;DHT22;8370;52.556;7.970;2023-07-28T12:23:16;28.30;99.90
16515;DHT22;8370;52.556;7.970;2023-07-28T12:25:42;28.80;99.90
16515;DHT22;8370;52.556;7.970;2023-07-28T12:28:08;28.80;99.90
16515;DHT22;8370;52.556;7.970;2023-07-28T12:30:34;28.60;99.90
16515;DHT22;8370;52.556;7.970;2023-07-28T12:32:59;28.80;99.90
16515;DHT22;8370;52.556;7.970;2023-07-28T12:35:26;28.50;99.90
16515;DHT22;8370;52.556;7.970;2023-07-28T12:37:56;28.40;99.90
16515;DHT22;8370;52.556;7.970;2023-07-28T12:40:21;28.30;99.90
16515;DHT22;8370;52.556;7.970;2023-07-28T12:42:47;28.20;99.90
16515;DHT22;8370;52.556;7.970;2023-07-28T12:45:13;28.20;99.90
16515;DHT22;8370;52.556;7.970;2023-07-28T12:47:39;27.60;99.90
16515;DHT22;8370;52.556;7.970;2023-07-28T12:50:04;27.30;99.90
16515;DHT22;8370;52.556;7.970;2023-07-28T12:52:31;26.60;99.90
16515;DHT22;8370;52.556;7.970;2023-07-28T12:54:57;25.80;99.90
16515;DHT22;8370;52.556;7.970;2023-07-28T12:57:23;25.10;99.90
16515;DHT22;8370;52.556;7.970;2023-07-28T12:59:49;24.90;99.90
16515;DHT22;8370;52.556;7.970;2023-07-28T13:02:14;25.20;99.90
16515;DHT22;8370;52.556;7.970;2023-07-28T13:04:40;25.60;99.90
16515;DHT22;8370;52.556;7.970;2023-07-28T13:07:05;25.80;99.90
16515;DHT22;8370;52.556;7.970;2023-07-28T13:09:31;26.00;99.90
16515;DHT22;8370;52.556;7.970;2023-07-28T13:11:56;26.20;99.90
16515;DHT22;8370;52.556;7.970;2023-07-28T13:14:22;26.10;99.90
16515;DHT22;8370;52.556;7.970;2023-07-28T13:16:47;26.00;99.90
16515;DHT22;8370;52.556;7.970;2023-07-28T13:19:12;26.10;99.90
16515;DHT22;8370;52.556;7.970;2023-07-28T13:21:38;26.10;99.90
16515;DHT22;8370;52.556;7.970;2023-07-28T13:24:03;25.90;99.90
16515;DHT22;8370;52.556;7.970;2023-07-28T13:26:29;25.80;99.90
16515;DHT22;8370;52.556;7.970;2023-07-28T13:28:54;26.00;99.90
16515;DHT22;8370;52.556;7.970;2023-07-28T13:31:22;26.00;99.90
16515;DHT22;8370;52.556;7.970;2023-07-28T13:33:47;26.00;99.90
16515;DHT22;8370;52.556;7.970;2023-07-28T13:36:13;26.10;99.90
16515;DHT22;8370;52.556;7.970;2023-07-28T13:38:38;26.10;99.90
16515;DHT22;8370;52.556;7.970;2023-07-28T13:41:04;26.00;99.90
16515;DHT22;8370;52.556;7.970;2023-07-28T13:43:31;26.00;99.90
16515;DHT22;8370;52.556;7.970;2023-07-28T13:45:56;26.00;99.90
16515;DHT22;8370;52.556;7.970;2023-07-28T13:48:23;26.00;99.90
16515;DHT22;8370;52.556;7.970;2023-07-28T13:50:48;26.00;99.90
16515;DHT22;8370;52.556;7.970;2023-07-28T13:53:14;25.80;99.90
16515;DHT22;8370;52.556;7.970;2023-07-28T13:55:39;25.70;99.90
16515;DHT22;8370;52.556;7.970;2023-07-28T13:58:05;25.70;99.90
16515;DHT22;8370;52.556;7.970;2023-07-28T14:00:32;25.70;99.90
16515;DHT22;8370;52.556;7.970;2023-07-28T14:02:57;25.80;99.90
16515;DHT22;8370;52.556;7.970;2023-07-28T14:05:23;25.80;99.90
16515;DHT22;8370;52.556;7.970;2023-07-28T14:07:48;25.80;99.90
16515;DHT22;8370;52.556;7.970;2023-07-28T14:10:13;25.90;99.90
16515;DHT22;8370;52.556;7.970;2023-07-28T14:12:39;25.80;99.90
16515;DHT22;8370;52.556;7.970;2023-07-28T14:15:05;25.90;99.90
16515;DHT22;8370;52.556;7.970;2023-07-28T14:17:32;25.90;99.90
16515;DHT22;8370;52.556;7.970;2023-07-28T14:19:58;25.80;99.90
16515;DHT22;8370;52.556;7.970;2023-07-28T14:22:23;26.00;99.90
16515;DHT22;8370;52.556;7.970;2023-07-28T14:24:49;26.00;99.90
16515;DHT22;8370;52.556;7.970;2023-07-28T14:27:14;26.10;99.90
16515;DHT22;8370;52.556;7.970;2023-07-28T14:29:40;26.20;99.90
16515;DHT22;8370;52.556;7.970;2023-07-28T14:32:05;26.20;99.90
16515;DHT22;8370;52.556;7.970;2023-07-28T14:34:31;26.30;99.90
16515;DHT22;8370;52.556;7.970;2023-07-28T14:36:56;26.30;99.90
16515;DHT22;8370;52.556;7.970;2023-07-28T14:39:21;26.10;99.90
16515;DHT22;8370;52.556;7.970;2023-07-28T14:41:47;26.00;99.90
16515;DHT22;8370;52.556;7.970;2023-07-28T14:44:12;25.90;99.90
16515;DHT22;8370;52.556;7.970;2023-07-28T14:46:38;25.80;99.90
16515;DHT22;8370;52.556;7.970;2023-07-28T14:49:03;25.80;99.90
16515;DHT22;8370;52.556;7.970;2023-07-28T14:51:29;25.70;99.90
16515;DHT22;8370;52.556;7.970;2023-07-28T14:53:54;25.70;99.90
16515;DHT22;8370;52.556;7.970;2023-07-28T14:56:20;25.70;99.90
16515;DHT22;8370;52.556;7.970;2023-07-28T14:58:49;25.50;99.90
16515;DHT22;8370;52.556;7.970;2023-07-28T15:01:16;25.40;99.90
16515;DHT22;8370;52.556;7.970;2023-07-28T15:03:42;25.30;99.90
16515;DHT22;8370;52.556;7.970;2023-07-28T15:06:07;25.50;99.90
16515;DHT22;8370;52.556;7.970;2023-07-28T15:08:33;25.60;99.90
16515;DHT22;8370;52.556;7.970;2023-07-28T15:10:58;25.60;99.90
16515;DHT22;8370;52.556;7.970;2023-07-28T15:13:24;25.50;99.90
16515;DHT22;8370;52.556;7.970;2023-07-28T15:15:49;25.50;99.90
16515;DHT22;8370;52.556;7.970;2023-07-28T15:18:15;25.50;99.90
16515;DHT22;8370;52.556;7.970;2023-07-28T15:20:41;25.70;99.90
16515;DHT22;8370;52.556;7.970;2023-07-28T15:23:06;25.80;99.90
16515;DHT22;8370;52.556;7.970;2023-07-28T15:25:32;25.80;99.90
16515;DHT22;8370;52.556;7.970;2023-07-28T15:27:57;25.70;99.90
16515;DHT22;8370;52.556;7.970;2023-07-28T15:30:23;25.60;99.90
16515;DHT22;8370;52.556;7.970;2023-07-28T15:32:49;25.40;99.90
16515;DHT22;8370;52.556;7.970;2023-07-28T15:35:14;25.20;99.90
16515;DHT22;8370;52.556;7.970;2023-07-28T15:37:40;25.20;99.90
16515;DHT22;8370;52.556;7.970;2023-07-28T15:40:05;25.20;99.90
16515;DHT22;8370;52.556;7.970;2023-07-28T15:42:31;25.20;99.90